Lostant, Illinois
Current Conditions -  °F | °C
As of 4:15 PM on Thursday 23 Oct 2014 (Local Time) from KVYS Reporting Station
Overcast Overcast  
Wind Chill: 15°   Ceiling: 4000
Heat Index: 15°   Visibility: 10mi
Dew Point:   Wind: 13mph
Humidity: 57%   Direction: 180°S
Pressure: 30.07"   Gusts: NA
Location:  41.14°N, 89.06°W
Report Text: KVYS 232115Z AUTO 18011KT 10SM BKN040 OVC080 15/07 A3007 RMK AO2 T01520066
Loading
Personal Weather Stations






























Interactive Weather Map
Tropical Storm Tracking
New forecast layout! Learn more

10-Day Weather Forecast

Advertisements
Track Severe Weather on mobile